createdAt,value
2022-11-19T00:00:37.475Z,12.23
2022-11-19T00:03:43.485Z,12.07
2022-11-19T00:06:46.808Z,13.73
2022-11-19T00:09:49.778Z,12.07
2022-11-19T00:12:55.642Z,12.43
2022-11-19T00:16:03.655Z,12.40
2022-11-19T00:19:09.391Z,13.17
2022-11-19T00:22:12.506Z,11.47
2022-11-19T00:25:16.097Z,12.63
2022-11-19T00:28:19.137Z,12.53
2022-11-19T00:31:22.187Z,12.73
2022-11-19T00:34:26.442Z,14.10
2022-11-19T00:37:29.750Z,14.43
2022-11-19T00:40:32.692Z,13.80
2022-11-19T00:43:48.184Z,15.20
2022-11-19T00:46:51.528Z,14.63
2022-11-19T00:49:56.331Z,14.80
2022-11-19T00:52:59.553Z,14.37
2022-11-19T00:56:03.974Z,14.97
2022-11-19T00:59:07.003Z,14.50
2022-11-19T01:02:09.942Z,13.33
2022-11-19T01:05:14.869Z,14.23
2022-11-19T01:08:18.250Z,15.07
2022-11-19T01:11:24.578Z,13.13
2022-11-19T01:14:27.630Z,13.93
2022-11-19T01:17:30.580Z,14.53
2022-11-19T01:20:34.927Z,13.60
2022-11-19T01:23:38.468Z,12.93
2022-11-19T01:26:45.519Z,13.83
2022-11-19T01:29:49.322Z,13.37
2022-11-19T01:32:52.328Z,12.97
2022-11-19T01:36:01.791Z,13.83
2022-11-19T01:39:04.820Z,14.17
2022-11-19T01:42:28.528Z,12.83
2022-11-19T01:45:35.235Z,13.40
2022-11-19T01:48:41.871Z,13.93
2022-11-19T01:51:53.406Z,14.17
2022-11-19T01:54:57.047Z,13.53
2022-11-19T01:58:02.673Z,13.07
2022-11-19T02:01:06.510Z,13.80
2022-11-19T02:04:09.904Z,13.40
2022-11-19T02:07:15.115Z,13.90
2022-11-19T02:10:18.535Z,14.60
2022-11-19T02:13:31.004Z,15.27
2022-11-19T02:16:43.086Z,14.70
2022-11-19T02:20:38.247Z,15.07
2022-11-19T02:24:32.834Z,14.60
2022-11-19T02:27:59.139Z,14.83
2022-11-19T02:31:09.899Z,14.37
2022-11-19T02:35:09.961Z,14.53
2022-11-19T02:38:24.725Z,14.23
2022-11-19T02:41:36.985Z,12.63
2022-11-19T02:45:02.179Z,14.03
2022-11-19T02:48:11.492Z,13.10
2022-11-19T02:51:16.887Z,13.77
2022-11-19T02:54:20.314Z,12.37
2022-11-19T02:57:23.509Z,13.67
2022-11-19T03:00:45.070Z,13.20
2022-11-19T03:04:08.028Z,13.30
2022-11-19T03:07:16.367Z,12.57
2022-11-19T03:10:23.781Z,12.83
2022-11-19T03:13:50.649Z,13.13
2022-11-19T03:16:59.917Z,13.17
2022-11-19T03:20:11.772Z,12.63
2022-11-19T03:23:21.819Z,14.00
2022-11-19T03:26:31.234Z,14.40
2022-11-19T03:29:38.068Z,13.00
2022-11-19T03:32:47.992Z,13.77
2022-11-19T03:35:55.450Z,12.60
2022-11-19T03:39:04.535Z,11.73
2022-11-19T03:42:11.422Z,13.10
2022-11-19T03:45:18.881Z,11.90
2022-11-19T03:48:23.981Z,12.33
2022-11-19T03:51:38.001Z,12.57
2022-11-19T03:54:41.472Z,12.03
2022-11-19T03:57:47.808Z,12.07
2022-11-19T04:00:51.223Z,11.80
2022-11-19T04:04:11.870Z,11.20
2022-11-19T04:07:18.585Z,11.60
2022-11-19T04:10:21.645Z,11.13
2022-11-19T04:13:24.760Z,11.37
2022-11-19T04:16:27.928Z,12.83
2022-11-19T04:19:30.883Z,12.30
2022-11-19T04:22:35.476Z,11.53
2022-11-19T04:25:40.290Z,11.60
2022-11-19T04:28:43.272Z,11.00
2022-11-19T04:31:47.640Z,11.33
2022-11-19T04:34:50.666Z,11.07
2022-11-19T04:37:54.975Z,11.50
2022-11-19T04:40:57.894Z,11.00
2022-11-19T04:44:01.117Z,11.57
2022-11-19T04:47:04.095Z,10.87
2022-11-19T04:50:09.124Z,11.03
2022-11-19T04:53:13.892Z,10.50
2022-11-19T04:56:17.033Z,10.90
2022-11-19T04:59:20.621Z,10.17
2022-11-19T05:02:23.951Z,11.73
2022-11-19T05:05:26.930Z,11.63
2022-11-19T05:08:31.308Z,11.77
2022-11-19T05:11:34.220Z,12.40
2022-11-19T05:14:38.376Z,11.13
2022-11-19T05:17:41.337Z,11.53
2022-11-19T05:20:44.466Z,10.80
2022-11-19T05:23:48.739Z,10.87
2022-11-19T05:26:51.726Z,11.47
2022-11-19T05:29:54.712Z,10.87
2022-11-19T05:32:58.119Z,10.10
2022-11-19T05:36:01.049Z,10.90
2022-11-19T05:39:05.387Z,11.03
2022-11-19T05:42:08.350Z,10.50
2022-11-19T05:45:12.747Z,10.47
2022-11-19T05:48:15.712Z,8.90
2022-11-19T05:51:18.682Z,10.73
2022-11-19T05:54:23.228Z,10.63
2022-11-19T05:57:26.213Z,10.23
2022-11-19T06:00:29.437Z,9.87
2022-11-19T06:03:33.406Z,9.70
2022-11-19T06:06:36.551Z,9.63
2022-11-19T06:09:41.204Z,9.83
2022-11-19T06:12:46.036Z,9.80
2022-11-19T06:15:49.560Z,9.83
2022-11-19T06:18:52.569Z,9.73
2022-11-19T06:21:55.885Z,9.33
2022-11-19T06:25:00.150Z,9.20
2022-11-19T06:28:03.092Z,8.90
2022-11-19T06:31:06.338Z,9.30
2022-11-19T06:34:09.819Z,8.27
2022-11-19T06:37:12.799Z,8.40
2022-11-19T06:40:17.412Z,9.57
2022-11-19T06:43:20.977Z,8.20
2022-11-19T06:46:23.983Z,9.90
2022-11-19T06:49:26.970Z,9.67
2022-11-19T06:52:30.233Z,9.47
2022-11-19T06:55:34.820Z,9.50
2022-11-19T06:58:37.860Z,9.87
2022-11-19T07:01:40.819Z,7.97
2022-11-19T07:04:43.763Z,8.83
2022-11-19T07:07:46.665Z,9.50
2022-11-19T07:10:51.750Z,9.10
2022-11-19T07:13:59.783Z,9.43
2022-11-19T07:17:03.152Z,9.10
2022-11-19T07:20:08.540Z,8.80
2022-11-19T07:23:11.968Z,9.53
2022-11-19T07:26:16.623Z,10.00
2022-11-19T07:29:20.099Z,9.63
2022-11-19T07:32:23.143Z,8.77
2022-11-19T07:35:26.207Z,9.67
2022-11-19T07:38:34.139Z,8.97
2022-11-19T07:41:58.757Z,9.53
2022-11-19T07:45:03.035Z,8.63
2022-11-19T07:48:06.662Z,9.50
2022-11-19T07:51:09.634Z,8.90
2022-11-19T07:54:15.108Z,8.80
2022-11-19T07:57:24.618Z,8.13
2022-11-19T08:00:30.305Z,7.73
2022-11-19T08:03:33.597Z,7.50
2022-11-19T08:06:37.005Z,8.67
2022-11-19T08:09:40.272Z,9.47
2022-11-19T08:13:03.004Z,9.57
2022-11-19T08:16:08.737Z,8.77
2022-11-19T08:19:16.171Z,8.73
2022-11-19T08:22:19.463Z,8.57
2022-11-19T08:25:22.535Z,8.77
2022-11-19T08:28:27.538Z,9.10
2022-11-19T08:31:30.604Z,8.37
2022-11-19T08:34:35.321Z,9.23
2022-11-19T08:37:51.376Z,8.27
2022-11-19T08:41:15.758Z,8.00
2022-11-19T08:44:19.777Z,7.17
2022-11-19T08:47:23.399Z,7.10
2022-11-19T08:50:26.806Z,8.07
2022-11-19T08:53:30.081Z,8.37
2022-11-19T08:56:33.731Z,8.33
2022-11-19T08:59:38.339Z,7.93
2022-11-19T09:02:42.651Z,7.80
2022-11-19T09:05:45.946Z,8.13
2022-11-19T09:08:49.301Z,7.90
2022-11-19T09:11:52.645Z,7.63
2022-11-19T09:14:57.466Z,7.33
2022-11-19T09:18:00.754Z,7.67
2022-11-19T09:21:03.996Z,7.53
2022-11-19T09:24:07.830Z,6.90
2022-11-19T09:27:11.139Z,6.93
2022-11-19T09:30:17.173Z,7.27
2022-11-19T09:33:20.478Z,8.00
2022-11-19T09:36:23.829Z,6.50
2022-11-19T09:39:27.471Z,7.20
2022-11-19T09:42:41.889Z,6.67
2022-11-19T09:45:57.690Z,6.37
2022-11-19T09:49:05.218Z,7.40
2022-11-19T09:52:14.531Z,6.47
2022-11-19T09:55:27.856Z,6.80
2022-11-19T09:58:37.424Z,5.87
2022-11-19T10:01:42.392Z,4.80
2022-11-19T10:04:46.938Z,6.37
2022-11-19T10:08:06.343Z,5.83
2022-11-19T10:11:29.044Z,5.63
2022-11-19T10:14:55.828Z,6.50
2022-11-19T10:18:12.795Z,6.00
2022-11-19T10:21:23.690Z,6.00
2022-11-19T10:24:35.597Z,5.70
2022-11-19T10:27:44.757Z,5.53
2022-11-19T10:30:52.122Z,5.50
2022-11-19T10:34:04.457Z,6.13
2022-11-19T10:37:13.969Z,6.30
2022-11-19T10:40:20.908Z,5.60
2022-11-19T10:43:33.258Z,5.30
2022-11-19T10:46:36.706Z,5.43
2022-11-19T10:49:43.478Z,5.03
2022-11-19T10:52:51.426Z,5.93
2022-11-19T10:55:58.622Z,5.00
2022-11-19T10:59:12.641Z,4.87
2022-11-19T11:02:28.147Z,5.10
2022-11-19T11:06:01.107Z,4.57
2022-11-19T11:09:05.691Z,5.37
2022-11-19T11:12:32.827Z,5.10
2022-11-19T11:15:36.384Z,5.70
2022-11-19T11:18:41.420Z,4.80
2022-11-19T11:21:47.029Z,5.37
2022-11-19T11:24:50.472Z,5.70
2022-11-19T11:28:08.111Z,5.40
2022-11-19T11:31:12.136Z,5.73
2022-11-19T11:34:31.195Z,5.67
2022-11-19T11:37:36.137Z,5.67
2022-11-19T11:40:39.450Z,5.90
2022-11-19T11:44:01.230Z,6.00
2022-11-19T11:47:12.754Z,6.83
2022-11-19T11:50:23.352Z,6.20
2022-11-19T11:53:34.298Z,6.50
2022-11-19T11:56:37.952Z,7.00
2022-11-19T11:59:41.248Z,6.80
2022-11-19T12:03:02.101Z,6.33
2022-11-19T12:06:13.742Z,6.97
2022-11-19T12:09:28.370Z,6.93
2022-11-19T12:12:43.136Z,7.57
2022-11-19T12:15:55.796Z,7.20
2022-11-19T12:19:24.982Z,7.10
2022-11-19T12:22:40.644Z,7.00
2022-11-19T12:26:00.917Z,7.20
2022-11-19T12:29:20.672Z,7.70
2022-11-19T12:32:51.640Z,6.97
2022-11-19T12:36:08.493Z,7.63
2022-11-19T12:39:26.666Z,7.80
2022-11-19T12:42:48.220Z,6.77
2022-11-19T12:46:01.587Z,7.57
2022-11-19T12:49:44.554Z,7.97
2022-11-19T12:53:24.599Z,7.40
2022-11-19T12:56:46.622Z,7.77
2022-11-19T13:00:08.839Z,8.23
2022-11-19T13:03:19.094Z,8.50
2022-11-19T13:06:27.266Z,9.03
2022-11-19T13:09:40.877Z,8.33
2022-11-19T13:12:50.379Z,8.83
2022-11-19T13:16:01.534Z,9.83
2022-11-19T13:19:20.804Z,8.70
2022-11-19T13:22:28.948Z,8.80
2022-11-19T13:25:36.890Z,8.93
2022-11-19T13:28:48.710Z,8.93
2022-11-19T13:32:00.068Z,8.93
2022-11-19T13:35:17.851Z,9.10
2022-11-19T13:38:26.392Z,8.43
2022-11-19T13:41:33.637Z,8.87
2022-11-19T13:44:41.281Z,9.33
2022-11-19T13:47:56.870Z,10.60
2022-11-19T13:51:09.646Z,9.57
2022-11-19T13:54:24.973Z,9.67
2022-11-19T13:57:33.631Z,9.47
2022-11-19T14:00:38.481Z,10.20
2022-11-19T14:04:01.606Z,10.30
2022-11-19T14:07:39.168Z,10.63
2022-11-19T14:10:56.463Z,9.53
2022-11-19T14:14:41.522Z,9.40
2022-11-19T14:18:10.281Z,9.30
2022-11-19T14:22:18.865Z,9.37
2022-11-19T14:26:03.465Z,9.07
2022-11-19T14:29:07.625Z,9.57
2022-11-19T14:32:20.046Z,8.73
2022-11-19T14:35:37.003Z,9.70
2022-11-19T14:38:48.227Z,9.47
2022-11-19T14:42:15.511Z,9.40
2022-11-19T14:45:21.396Z,10.37
2022-11-19T14:48:24.870Z,9.90
2022-11-19T14:51:32.934Z,10.40
2022-11-19T14:54:43.776Z,10.53
2022-11-19T14:57:57.787Z,11.00
2022-11-19T15:01:09.588Z,10.47
2022-11-19T15:04:14.568Z,10.83
2022-11-19T15:07:35.500Z,12.50
2022-11-19T15:11:05.118Z,10.73
2022-11-19T15:14:59.900Z,11.10
2022-11-19T15:18:30.028Z,11.97
2022-11-19T15:22:26.469Z,10.80
2022-11-19T15:25:40.855Z,11.30
2022-11-19T15:29:04.873Z,11.50
2022-11-19T15:32:27.589Z,11.23
2022-11-19T15:35:52.521Z,11.77
2022-11-19T15:39:02.627Z,10.90
2022-11-19T15:42:14.468Z,11.73
2022-11-19T15:45:23.273Z,11.30
2022-11-19T15:48:36.664Z,11.40
2022-11-19T15:52:00.272Z,12.77
2022-11-19T15:55:17.771Z,11.87
2022-11-19T15:58:27.408Z,10.83
2022-11-19T16:01:34.323Z,10.90
2022-11-19T16:04:40.129Z,12.27
2022-11-19T16:07:48.617Z,11.70
2022-11-19T16:11:17.302Z,11.30
2022-11-19T16:14:46.507Z,12.43
2022-11-19T16:17:51.284Z,12.00
2022-11-19T16:20:55.198Z,11.33
2022-11-19T16:24:17.437Z,11.80
2022-11-19T16:27:26.460Z,13.10
2022-11-19T16:30:39.134Z,12.63
2022-11-19T16:33:43.989Z,12.83
2022-11-19T16:36:48.552Z,12.80
2022-11-19T16:39:53.908Z,12.13
2022-11-19T16:43:00.769Z,12.27
2022-11-19T16:46:06.579Z,12.03
2022-11-19T16:49:30.930Z,13.33
2022-11-19T16:52:44.705Z,11.73
2022-11-19T16:55:53.011Z,12.80
2022-11-19T16:59:00.846Z,12.80
2022-11-19T17:02:05.081Z,12.47
2022-11-19T17:05:13.311Z,13.90
2022-11-19T17:08:23.409Z,13.10
2022-11-19T17:11:59.819Z,12.50
2022-11-19T17:15:33.633Z,12.33
2022-11-19T17:18:36.971Z,12.90
2022-11-19T17:21:41.749Z,13.77
2022-11-19T17:24:49.388Z,13.67
2022-11-19T17:27:56.364Z,12.60
2022-11-19T17:31:01.649Z,12.87
2022-11-19T17:34:12.261Z,14.17
2022-11-19T17:37:16.914Z,13.67
2022-11-19T17:40:20.664Z,14.57
2022-11-19T17:43:43.770Z,14.43
2022-11-19T17:46:49.162Z,13.27
2022-11-19T17:49:53.066Z,15.77
2022-11-19T17:52:58.009Z,14.47
2022-11-19T17:56:02.732Z,14.57
2022-11-19T17:59:06.023Z,15.60
2022-11-19T18:02:15.444Z,15.07
2022-11-19T18:05:23.086Z,14.10
2022-11-19T18:08:27.818Z,15.03
2022-11-19T18:11:32.015Z,13.87
2022-11-19T18:14:35.291Z,13.67
2022-11-19T18:17:38.616Z,13.73
2022-11-19T18:20:42.958Z,13.23
2022-11-19T18:23:50.337Z,14.93
2022-11-19T18:26:53.594Z,15.73
2022-11-19T18:29:56.891Z,15.83
2022-11-19T18:33:00.296Z,14.67
2022-11-19T18:36:05.879Z,16.47
2022-11-19T18:39:10.588Z,15.90
2022-11-19T18:42:13.921Z,16.43
2022-11-19T18:45:16.366Z,16.87
2022-11-19T18:48:19.298Z,15.60
2022-11-19T18:51:22.745Z,16.43
2022-11-19T18:54:27.489Z,15.13
2022-11-19T18:57:38.297Z,15.27
2022-11-19T19:00:42.445Z,16.17
2022-11-19T19:03:45.905Z,16.07
2022-11-19T19:06:49.189Z,17.70
2022-11-19T19:09:53.441Z,15.77
2022-11-19T19:12:56.387Z,16.47
2022-11-19T19:16:01.571Z,16.37
2022-11-19T19:19:05.015Z,16.20
2022-11-19T19:22:08.828Z,16.00
2022-11-19T19:25:13.503Z,14.43
2022-11-19T19:28:18.964Z,15.97
2022-11-19T19:31:23.199Z,16.53
2022-11-19T19:34:26.307Z,16.17
2022-11-19T19:37:29.287Z,16.23
2022-11-19T19:40:33.593Z,16.53
2022-11-19T19:43:36.663Z,16.10
2022-11-19T19:46:39.859Z,15.70
2022-11-19T19:49:43.417Z,14.87
2022-11-19T19:52:46.741Z,15.43
2022-11-19T19:55:54.188Z,13.83
2022-11-19T19:59:05.280Z,15.83
2022-11-19T20:02:11.158Z,14.63
2022-11-19T20:05:15.241Z,15.33
2022-11-19T20:08:20.080Z,15.67
2022-11-19T20:11:28.346Z,15.03
2022-11-19T20:14:39.826Z,15.20
2022-11-19T20:17:48.440Z,16.53
2022-11-19T20:21:00.592Z,15.03
2022-11-19T20:24:12.374Z,14.77
2022-11-19T20:27:18.012Z,15.07
2022-11-19T20:30:21.138Z,14.33
2022-11-19T20:33:25.246Z,13.83
2022-11-19T20:36:40.144Z,14.60
2022-11-19T20:39:49.972Z,18.03
2022-11-19T20:43:13.846Z,17.47
2022-11-19T20:46:36.228Z,17.43
2022-11-19T20:50:00.159Z,17.00
2022-11-19T20:53:14.787Z,15.03
2022-11-19T20:56:33.678Z,15.40
2022-11-19T21:03:49.794Z,14.37
2022-11-19T21:06:54.206Z,15.20
2022-11-19T21:09:57.619Z,15.60
2022-11-19T21:13:03.394Z,16.37
2022-11-19T21:16:10.624Z,14.93
2022-11-19T21:19:14.099Z,15.77
2022-11-19T21:22:17.071Z,15.73
2022-11-19T21:25:20.197Z,15.40
2022-11-19T21:28:23.785Z,14.67
2022-11-19T21:31:39.356Z,15.70
2022-11-19T21:34:45.865Z,16.10
2022-11-19T21:37:48.899Z,17.27
2022-11-19T21:40:53.681Z,15.50
2022-11-19T21:43:56.960Z,16.07
2022-11-19T21:47:02.664Z,17.53
2022-11-19T21:50:07.006Z,16.60
2022-11-19T21:53:11.946Z,16.87
2022-11-19T21:56:14.946Z,18.03
2022-11-19T21:59:18.193Z,17.23
2022-11-19T22:02:23.704Z,17.37
2022-11-19T22:05:28.354Z,16.50
2022-11-19T22:08:32.490Z,17.37
2022-11-19T22:11:35.436Z,22.47
2022-11-19T22:14:40.865Z,81.57
2022-11-19T22:17:45.286Z,18.47
2022-11-19T22:20:50.452Z,28.47
2022-11-19T22:23:53.568Z,17.97
2022-11-19T22:26:56.684Z,20.53
2022-11-19T22:30:03.095Z,17.60
2022-11-19T22:33:10.088Z,19.50
2022-11-19T22:36:13.396Z,19.03
2022-11-19T22:39:18.407Z,20.20
2022-11-19T22:42:21.609Z,20.53
2022-11-19T22:45:25.011Z,19.97
2022-11-19T22:48:44.530Z,18.43
2022-11-19T22:51:47.629Z,20.93
2022-11-19T22:54:50.688Z,18.80
2022-11-19T22:57:53.910Z,45.67
2022-11-19T23:00:57.196Z,35.17
2022-11-19T23:04:05.822Z,20.10
2022-11-19T23:07:08.961Z,36.30
2022-11-19T23:10:11.953Z,17.50
2022-11-19T23:13:31.920Z,20.83
2022-11-19T23:16:35.181Z,45.00
2022-11-19T23:19:39.511Z,22.17
2022-11-19T23:22:42.513Z,20.00
2022-11-19T23:25:46.004Z,30.10
2022-11-19T23:28:49.550Z,18.23
2022-11-19T23:31:52.501Z,22.07
2022-11-19T23:34:57.918Z,18.57
2022-11-19T23:38:01.340Z,18.63
2022-11-19T23:41:05.888Z,17.57
2022-11-19T23:44:09.268Z,17.97
2022-11-19T23:47:12.233Z,19.27
2022-11-19T23:50:16.786Z,19.37
2022-11-19T23:53:20.255Z,16.50
2022-11-19T23:56:28.710Z,17.63
2022-11-19T23:59:36.526Z,16.43
